Terminal Aerodrome Forecast
Issued by NWS Wichita, KS

Home | Current Version | Previous Version | Text Only | Print | Product List | Glossary On
Versions: 1 2 3 4 5 6 7 8 9 10 11 12 13 14 15 16 17
000
FTUS43 KICT 010500 AAA
TAFICT
TAF AMD
KICT 010557Z 0106/0206 VRB06KT P6SM SCT050 BKN100
      TEMPO 0106/0109 36025G35KT 2SM +TSRA OVC040CB
     FM010900 15010KT P6SM SCT050 OVC120
     FM011500 21011KT P6SM SCT120
     FM012100 34009KT P6SM SCT060 BKN150=

USA.gov is the U.S. government's official web portal to all federal, state and local government web resources and services.